Time;durP1;ratioP1;P1;durP2;ratioP2;P2;SDS_P1;SDS_P2;PMS_P1;PMS_P2;Temp;Humidity;BMP_temperature;BMP_pressure;BME280_temperature;BME280_humidity;BME280_pressure;Samples;Min_cycle;Max_cycle;Signal;HPM_P1;HPM_P2
2022/12/03 00:01:59;;;;;;;28.73;16.53;;;;;;;2.20;100.00;98246.78;4935266;29;20259;-90
2022/12/03 00:04:26;;;;;;;28.23;15.33;;;;;;;2.22;100.00;98242.38;4935609;29;20231;-90
2022/12/03 00:06:53;;;;;;;32.90;16.73;;;;;;;2.24;100.00;98244.91;4935249;29;20216;-89
2022/12/03 00:09:19;;;;;;;28.57;15.40;;;;;;;2.20;100.00;98238.13;4935304;29;20704;-89
2022/12/03 00:11:46;;;;;;;34.10;17.10;;;;;;;2.24;100.00;98239.69;4935345;29;20239;-89
2022/12/03 00:14:12;;;;;;;27.73;15.20;;;;;;;2.25;100.00;98247.47;4935317;29;20674;-90
2022/12/03 00:16:39;;;;;;;28.70;15.63;;;;;;;2.25;100.00;98242.25;4935941;29;20682;-89
2022/12/03 00:19:07;;;;;;;29.10;16.27;;;;;;;2.28;100.00;98247.34;4941886;29;20216;-89
2022/12/03 00:21:33;;;;;;;26.10;14.80;;;;;;;2.28;100.00;98247.34;4936737;29;20212;-89
2022/12/03 00:24:00;;;;;;;32.57;16.43;;;;;;;2.28;100.00;98243.91;4934757;29;20209;-90
2022/12/03 00:26:27;;;;;;;26.27;14.80;;;;;;;2.29;100.00;98246.47;4934670;29;20216;-90
2022/12/03 00:28:54;;;;;;;26.97;13.40;;;;;;;2.32;100.00;98248.97;4934498;29;20556;-90
2022/12/03 00:31:22;;;;;;;30.90;15.53;;;;;;;2.33;100.00;98249.81;4934914;29;20223;-90
2022/12/03 00:33:48;;;;;;;28.60;14.60;;;;;;;2.36;100.00;98241.88;4934482;29;20389;-90
2022/12/03 00:36:16;;;;;;;26.20;14.67;;;;;;;2.37;100.00;98241.84;4934427;29;20224;-90
2022/12/03 00:38:43;;;;;;;27.67;14.23;;;;;;;2.43;100.00;98244.22;4934711;29;20204;-90
2022/12/03 00:41:09;;;;;;;24.03;12.83;;;;;;;2.45;100.00;98239.78;4936099;29;20219;-90
2022/12/03 00:43:36;;;;;;;26.73;15.33;;;;;;;2.50;100.00;98253.53;4934223;29;20228;-90
2022/12/03 00:46:02;;;;;;;26.43;13.87;;;;;;;2.54;100.00;98254.28;4934546;29;20573;-89
2022/12/03 00:48:29;;;;;;;28.43;15.93;;;;;;;2.55;100.00;98254.22;4934643;29;20215;-90
2022/12/03 00:50:55;;;;;;;23.07;13.87;;;;;;;2.60;100.00;98249.69;4937292;29;20218;-89
2022/12/03 00:53:23;;;;;;;22.20;14.07;;;;;;;2.63;100.00;98252.19;4935698;29;20235;-90
2022/12/03 00:55:50;;;;;;;24.80;14.17;;;;;;;2.64;100.00;98261.72;4934163;29;20663;-89
2022/12/03 00:58:17;;;;;;;26.53;14.30;;;;;;;2.63;100.00;98249.56;4934083;29;20228;-90
2022/12/03 01:00:43;;;;;;;29.90;15.87;;;;;;;2.71;100.00;98250.16;4934357;29;20216;-90
2022/12/03 01:03:11;;;;;;;24.37;14.27;;;;;;;2.70;100.00;98251.06;4934664;29;20240;-89
2022/12/03 01:05:37;;;;;;;28.53;14.53;;;;;;;2.73;100.00;98261.41;4934268;29;20517;-90
2022/12/03 01:08:04;;;;;;;24.27;13.13;;;;;;;2.71;100.00;98250.16;4934072;29;20208;-89
2022/12/03 01:10:32;;;;;;;24.30;13.93;;;;;;;2.72;100.00;98248.41;4934115;29;20246;-90
2022/12/03 01:12:58;;;;;;;23.43;13.40;;;;;;;2.72;100.00;98259.69;4933947;29;20236;-90
2022/12/03 01:15:25;;;;;;;22.30;12.63;;;;;;;2.75;100.00;98259.56;4934342;29;20234;-90
2022/12/03 01:17:53;;;;;;;22.63;13.33;;;;;;;2.77;100.00;98252.56;4934092;29;20223;-90
2022/12/03 01:20:20;;;;;;;21.37;12.27;;;;;;;2.76;100.00;98256.06;4934195;29;20218;-90
2022/12/03 01:22:46;;;;;;;20.70;11.90;;;;;;;2.77;100.00;98252.56;4934008;29;20251;-90
2022/12/03 01:25:13;;;;;;;22.03;13.20;;;;;;;2.76;100.00;98255.22;4934233;29;20222;-90
2022/12/03 01:27:40;;;;;;;19.93;12.57;;;;;;;2.76;100.00;98250.81;4934271;29;20208;-89
2022/12/03 01:30:08;;;;;;;23.33;13.57;;;;;;;2.82;100.00;98253.22;4934449;29;20223;-90
2022/12/03 01:32:34;;;;;;;21.60;13.07;;;;;;;2.78;100.00;98259.47;4934377;29;20240;-91
2022/12/03 01:35:00;;;;;;;23.27;13.67;;;;;;;2.77;100.00;98257.78;4938237;29;20655;-90
2022/12/03 01:37:27;;;;;;;20.23;13.20;;;;;;;2.79;100.00;98253.34;4937950;29;20212;-91
2022/12/03 01:39:53;;;;;;;20.43;12.57;;;;;;;2.73;100.00;98256.19;4938372;29;20220;-90
2022/12/03 01:42:23;;;;;;;19.77;12.20;;;;;;;2.69;100.00;98258.97;4938334;29;20229;-91
2022/12/03 01:44:53;;;;;;;18.10;11.97;;;;;;;2.76;100.00;98256.06;4938554;29;20208;-91
2022/12/03 01:47:22;;;;;;;21.70;12.77;;;;;;;2.71;100.00;98251.91;4937862;29;20212;-91
2022/12/03 01:49:50;;;;;;;19.77;12.00;;;;;;;2.78;100.00;98254.25;4938009;29;20721;-90
2022/12/03 01:52:19;;;;;;;18.80;12.93;;;;;;;2.80;100.00;98252.44;4937829;29;20229;-90
2022/12/03 01:54:48;;;;;;;20.67;11.37;;;;;;;2.80;100.00;98254.19;4938265;29;20649;-90
2022/12/03 01:57:21;;;;;;;15.67;10.77;;;;;;;2.76;100.00;98256.06;4937929;29;20212;-90
2022/12/03 01:59:48;;;;;;;17.90;11.67;;;;;;;2.71;100.00;98263.22;4937974;29;20216;-90
2022/12/03 02:02:20;;;;;;;18.90;12.13;;;;;;;2.80;100.00;98262.88;4937860;29;20324;-90
2022/12/03 02:04:47;;;;;;;18.80;11.40;;;;;;;2.71;100.00;98267.56;4937815;29;20307;-90
2022/12/03 02:07:23;;;;;;;18.87;12.10;;;;;;;2.69;100.00;98269.41;4937532;29;20216;-90
2022/12/03 02:09:50;;;;;;;17.13;11.57;;;;;;;2.71;100.00;98265.84;4937984;29;20212;-90
2022/12/03 02:12:22;;;;;;;20.63;12.77;;;;;;;2.78;100.00;98259.47;4937584;29;20610;-90
2022/12/03 02:14:49;;;;;;;17.03;11.13;;;;;;;2.76;100.00;98260.44;4937675;29;20687;-91
2022/12/03 02:17:17;;;;;;;15.57;11.00;;;;;;;2.71;100.00;98265.84;4937379;29;20495;-89
2022/12/03 02:19:44;;;;;;;18.20;11.73;;;;;;;2.69;100.00;98270.22;4937815;29;20600;-84
2022/12/03 02:22:23;;;;;;;18.60;11.60;;;;;;;2.68;100.00;98263.31;4937463;29;20243;-91
2022/12/03 02:24:55;;;;;;;18.90;11.60;;;;;;;2.74;100.00;98257.88;4937472;29;20274;-91
2022/12/03 02:27:23;;;;;;;17.73;11.27;;;;;;;2.72;100.00;98257.09;4936957;29;20208;-91
2022/12/03 02:29:50;;;;;;;20.67;11.83;;;;;;;2.75;100.00;98266.56;4937209;29;20683;-90
2022/12/03 02:32:16;;;;;;;18.23;11.70;;;;;;;2.71;100.00;98260.59;4937340;29;20554;-91
2022/12/03 02:34:45;;;;;;;20.23;12.37;;;;;;;2.74;100.00;98247.44;4937552;29;20223;-92
2022/12/03 02:37:15;;;;;;;19.70;12.30;;;;;;;2.70;100.00;98251.06;4937136;29;20218;-91
2022/12/03 02:39:47;;;;;;;20.37;12.33;;;;;;;2.67;100.00;98245.97;4937194;29;20224;-91
2022/12/03 02:45:01;;;;;;;19.20;11.97;;;;;;;2.68;100.00;98260.69;4936704;29;20227;-91
2022/12/03 02:47:29;;;;;;;20.07;12.53;;;;;;;2.65;100.00;98258.22;4937010;29;20212;-91
2022/12/03 02:49:57;;;;;;;22.50;12.23;;;;;;;2.60;100.00;98259.28;4937203;29;20216;-90
2022/12/03 02:52:24;;;;;;;20.60;11.50;;;;;;;2.61;100.00;98260.97;4936857;29;20606;-90
2022/12/03 02:54:51;;;;;;;22.47;13.50;;;;;;;2.62;100.00;98263.53;4936773;29;20208;-90
2022/12/03 02:57:17;;;;;;;22.80;12.67;;;;;;;2.64;100.00;98259.09;4937086;29;20212;-90
2022/12/03 02:59:45;;;;;;;23.03;12.03;;;;;;;2.67;100.00;98260.75;4937995;29;20679;-91
2022/12/03 03:02:14;;;;;;;22.47;12.70;;;;;;;2.71;100.00;98263.22;4937110;29;20260;-90
2022/12/03 03:04:42;;;;;;;21.63;12.30;;;;;;;2.71;100.00;98268.44;4937326;29;20208;-91
2022/12/03 03:07:09;;;;;;;20.60;12.70;;;;;;;2.70;100.00;98264.09;4937481;29;20661;-90
2022/12/03 03:09:36;;;;;;;21.37;12.40;;;;;;;2.73;100.00;98258.78;4938495;29;20219;-90
2022/12/03 03:12:02;;;;;;;21.70;12.17;;;;;;;2.74;100.00;98254.41;4937690;29;20232;-88
2022/12/03 03:14:29;;;;;;;20.10;12.60;;;;;;;2.77;100.00;98255.16;4936908;29;20239;-91
2022/12/03 03:16:56;;;;;;;22.83;11.83;;;;;;;2.77;100.00;98252.56;4936485;29;20235;-91
2022/12/03 03:19:25;;;;;;;23.87;12.63;;;;;;;2.80;100.00;98257.66;4936762;29;20310;-91
2022/12/03 03:21:52;;;;;;;22.40;12.47;;;;;;;2.81;100.00;98259.34;4937077;29;20700;-90
2022/12/03 03:24:19;;;;;;;23.27;12.10;;;;;;;2.75;100.00;98254.34;4946170;29;20222;-89
2022/12/03 03:26:45;;;;;;;20.23;11.07;;;;;;;2.76;100.00;98260.44;4940942;29;20212;-91
2022/12/03 03:29:12;;;;;;;19.77;11.60;;;;;;;2.77;100.00;98257.78;4937951;29;20648;-91
2022/12/03 03:31:40;;;;;;;21.73;12.40;;;;;;;2.76;100.00;98258.66;4938091;29;20242;-91
2022/12/03 03:34:07;;;;;;;24.23;12.67;;;;;;;2.76;100.00;98258.66;4937906;29;20236;-91
2022/12/03 03:36:36;;;;;;;19.97;11.20;;;;;;;2.77;100.00;98254.31;4937229;29;20213;-91
2022/12/03 03:39:03;;;;;;;22.63;12.00;;;;;;;2.77;100.00;98256.91;4936013;29;20633;-91
2022/12/03 03:41:30;;;;;;;20.97;11.37;;;;;;;2.75;100.00;98249.13;4935912;29;20623;-91
2022/12/03 03:43:57;;;;;;;26.93;13.70;;;;;;;2.85;100.00;98260.09;4935895;29;20617;-90
2022/12/03 03:46:24;;;;;;;23.13;13.17;;;;;;;2.81;100.00;98251.53;4935952;29;20232;-91
2022/12/03 03:48:51;;;;;;;26.13;13.47;;;;;;;2.81;100.00;98254.13;4935895;29;20208;-91
2022/12/03 03:51:19;;;;;;;25.27;12.67;;;;;;;2.81;100.00;98254.13;4936141;29;20563;-91
2022/12/03 03:53:49;;;;;;;26.87;15.03;;;;;;;2.83;100.00;98246.25;4935755;29;20243;-91
2022/12/03 03:56:17;;;;;;;25.47;13.23;;;;;;;2.87;100.00;98253.06;4935096;29;20582;-91
2022/12/03 03:58:43;;;;;;;29.53;15.40;;;;;;;2.84;100.00;98256.66;4935905;29;20227;-90
2022/12/03 04:01:12;;;;;;;23.67;12.50;;;;;;;2.85;100.00;98249.66;4935752;29;20604;-90
2022/12/03 04:03:39;;;;;;;29.03;13.50;;;;;;;2.84;100.00;98251.41;4935327;29;20243;-90
2022/12/03 04:06:06;;;;;;;26.60;14.43;;;;;;;2.87;100.00;98245.25;4935259;29;20687;-89
2022/12/03 04:08:33;;;;;;;27.33;14.30;;;;;;;2.84;100.00;98248.81;4935984;29;20574;-90
2022/12/03 04:13:45;;;;;;;27.97;14.00;;;;;;;2.88;100.00;98245.16;4935440;29;20733;-89
2022/12/03 04:16:11;;;;;;;23.67;13.13;;;;;;;2.85;100.00;98240.06;4935326;29;20228;-90
2022/12/03 04:18:43;;;;;;;27.60;14.27;;;;;;;2.88;100.00;98239.09;4935688;29;20222;-89
2022/12/03 04:23:55;;;;;;;26.03;13.63;;;;;;;2.84;100.00;98238.38;4936613;29;20263;-89
2022/12/03 04:29:07;;;;;;;26.77;14.40;;;;;;;2.85;100.00;98234.84;4935629;29;20316;-90
2022/12/03 04:37:02;;;;;;;26.57;13.53;;;;;;;2.79;100.00;98219.41;4934727;29;20211;-90
2022/12/03 04:39:28;;;;;;;25.53;13.33;;;;;;;2.78;100.00;98237.72;4935090;29;20216;-89
2022/12/03 04:41:56;;;;;;;30.83;15.87;;;;;;;2.82;100.00;98231.50;4934545;29;20235;-89
2022/12/03 04:44:38;;;;;;;27.13;14.43;;;;;;;2.82;100.00;98234.94;4935145;29;20211;-89
2022/12/03 04:47:08;;;;;;;32.67;15.90;;;;;;;2.91;100.00;98236.38;4934699;29;20223;-89
2022/12/03 04:49:35;;;;;;;28.43;15.57;;;;;;;2.88;100.00;98226.88;4935043;29;20321;-90
2022/12/03 04:52:02;;;;;;;29.47;15.23;;;;;;;2.91;100.00;98234.63;4934900;29;20350;-90
2022/12/03 04:54:28;;;;;;;26.93;14.23;;;;;;;2.89;100.00;98235.59;4934558;29;20718;-90
2022/12/03 04:56:56;;;;;;;25.80;13.93;;;;;;;2.89;100.00;98236.41;4934457;29;20216;-89
2022/12/03 04:59:23;;;;;;;27.30;14.97;;;;;;;2.85;100.00;98239.22;4934582;29;20212;-90
2022/12/03 05:04:19;;;;;;;25.00;13.73;;;;;;;2.91;100.00;98239.84;4932939;29;20239;-82
2022/12/03 05:06:46;;;;;;;24.87;14.17;;;;;;;2.89;100.00;98241.63;4934255;29;20560;-84
2022/12/03 05:09:13;;;;;;;28.97;15.50;;;;;;;2.93;100.00;98231.97;4934107;29;20691;-84
2022/12/03 05:11:40;;;;;;;25.37;13.57;;;;;;;2.90;100.00;98238.16;4934689;29;20593;-84
2022/12/03 05:14:09;;;;;;;27.27;14.70;;;;;;;2.94;100.00;98239.72;4934614;29;20588;-83
2022/12/03 05:16:36;;;;;;;24.03;13.20;;;;;;;2.89;100.00;98225.97;4945625;29;20212;-80
2022/12/03 05:19:03;;;;;;;26.70;14.67;;;;;;;2.88;100.00;98231.28;4949190;29;20212;-81
2022/12/03 05:21:30;;;;;;;28.00;14.43;;;;;;;2.86;100.00;98228.72;4945159;29;20256;-83
2022/12/03 05:23:57;;;;;;;26.70;14.67;;;;;;;2.94;100.00;98223.22;4934631;29;20661;-83
2022/12/03 05:26:24;;;;;;;30.93;15.17;;;;;;;2.95;100.00;98230.97;4934421;29;20465;-83
2022/12/03 05:28:50;;;;;;;31.80;15.83;;;;;;;2.93;100.00;98226.75;4934019;29;20224;-83
2022/12/03 05:31:18;;;;;;;28.10;14.07;;;;;;;2.91;100.00;98232.00;4934059;29;20212;-83
2022/12/03 05:33:45;;;;;;;29.07;14.43;;;;;;;2.91;100.00;98228.53;4933947;29;20247;-83
2022/12/03 05:36:11;;;;;;;29.07;15.00;;;;;;;2.91;100.00;98224.19;4933811;29;20212;-84
2022/12/03 05:38:38;;;;;;;28.70;15.30;;;;;;;2.95;100.00;98220.53;4933862;29;20220;-84
2022/12/03 05:42:52;;;;;;;27.77;16.17;;;;;;;2.96;100.00;98222.25;4933973;29;20212;-84
2022/12/03 05:43:51;;;;;;;30.03;14.67;;;;;;;2.93;100.00;98222.34;4933665;29;20263;-84
2022/12/03 05:46:19;;;;;;;30.00;15.33;;;;;;;3.00;100.00;98210.78;4933751;29;20243;-83
2022/12/03 05:48:45;;;;;;;30.47;15.67;;;;;;;2.99;100.00;98205.63;4933881;29;20702;-83
2022/12/03 05:51:12;;;;;;;26.47;15.37;;;;;;;2.94;100.00;98203.16;4934000;29;20212;-84
2022/12/03 05:53:38;;;;;;;31.27;14.63;;;;;;;2.96;100.00;98205.72;4933646;29;20240;-84
2022/12/03 05:56:05;;;;;;;27.10;14.37;;;;;;;2.90;100.00;98209.44;4933932;29;20223;-84
2022/12/03 05:58:32;;;;;;;29.13;15.43;;;;;;;2.86;100.00;98207.84;4933718;29;20216;-83
2022/12/03 06:00:58;;;;;;;30.03;15.27;;;;;;;2.85;100.00;98206.13;4933920;29;20212;-84
2022/12/03 06:03:26;;;;;;;29.27;16.57;;;;;;;2.92;100.00;98204.13;4933464;29;20240;-83
2022/12/03 06:05:53;;;;;;;29.00;15.97;;;;;;;2.92;100.00;98211.97;4933611;29;20267;-83
2022/12/03 06:08:19;;;;;;;30.50;16.17;;;;;;;2.89;100.00;98210.31;4933583;29;20208;-83
2022/12/03 06:10:46;;;;;;;33.03;16.40;;;;;;;2.87;100.00;98206.09;4933717;29;20242;-84
2022/12/03 06:13:12;;;;;;;35.23;16.47;;;;;;;2.92;100.00;98210.22;4933796;29;20287;-84
2022/12/03 06:15:39;;;;;;;33.80;16.43;;;;;;;2.91;100.00;98216.34;4933601;29;20216;-84
2022/12/03 06:18:05;;;;;;;34.60;18.03;;;;;;;2.90;100.00;98212.03;4933405;29;20707;-84
2022/12/03 06:20:33;;;;;;;31.50;16.67;;;;;;;2.97;100.00;98216.13;4936413;29;20223;-85
2022/12/03 06:23:00;;;;;;;34.07;16.10;;;;;;;2.96;100.00;98222.25;4936833;29;20238;-84
2022/12/03 06:25:26;;;;;;;34.07;16.27;;;;;;;2.92;100.00;98210.22;4937076;29;20212;-85
2022/12/03 06:27:52;;;;;;;37.90;17.67;;;;;;;2.91;100.00;98212.88;4936856;29;20219;-84
2022/12/03 06:30:19;;;;;;;37.43;18.47;;;;;;;2.89;100.00;98219.91;4936812;29;20301;-84
2022/12/03 06:32:46;;;;;;;36.17;17.17;;;;;;;2.92;100.00;98230.22;4936721;29;20741;-84
2022/12/03 06:35:12;;;;;;;37.33;16.90;;;;;;;2.94;100.00;98233.66;4936762;29;20239;-84
2022/12/03 06:37:40;;;;;;;37.17;17.63;;;;;;;2.96;100.00;98229.22;4936289;29;20212;-85
2022/12/03 06:40:08;;;;;;;36.03;16.53;;;;;;;2.95;100.00;98225.75;4936549;29;20216;-84
2022/12/03 06:42:34;;;;;;;37.80;17.43;;;;;;;2.99;100.00;98229.94;4936761;29;20609;-84
2022/12/03 06:45:01;;;;;;;35.80;16.27;;;;;;;3.04;100.00;98233.25;4936667;29;20212;-83
2022/12/03 06:47:27;;;;;;;36.90;18.30;;;;;;;3.01;100.00;98235.97;4936361;29;20208;-84
2022/12/03 06:49:54;;;;;;;39.33;17.83;;;;;;;3.02;100.00;98242.03;4936654;29;20217;-84
2022/12/03 06:52:20;;;;;;;36.77;17.83;;;;;;;3.03;100.00;98239.38;4936166;29;20268;-83
2022/12/03 06:54:48;;;;;;;37.63;18.27;;;;;;;3.02;100.00;98242.91;4936422;29;20245;-84
2022/12/03 06:57:15;;;;;;;36.30;16.47;;;;;;;2.99;100.00;98248.22;4936099;29;20569;-84
2022/12/03 06:59:41;;;;;;;39.93;17.03;;;;;;;3.04;100.00;98253.28;4936187;29;20220;-85
2022/12/03 07:02:08;;;;;;;37.10;17.37;;;;;;;3.00;100.00;98254.31;4936037;29;20236;-83
2022/12/03 07:04:34;;;;;;;36.43;17.57;;;;;;;3.07;100.00;98247.94;4936084;29;20211;-83
2022/12/03 07:07:01;;;;;;;34.77;17.33;;;;;;;3.11;100.00;98247.78;4935913;29;20208;-84
2022/12/03 07:09:27;;;;;;;33.83;17.73;;;;;;;3.10;100.00;98246.06;4936209;29;20223;-84
2022/12/03 07:11:55;;;;;;;37.23;17.33;;;;;;;3.08;100.00;98234.84;4936134;29;20217;-82
2022/12/03 07:14:22;;;;;;;32.67;15.83;;;;;;;3.08;100.00;98237.47;4936071;29;20243;-84
2022/12/03 07:16:48;;;;;;;38.20;18.10;;;;;;;3.11;100.00;98232.09;4935659;29;20218;-84
2022/12/03 07:19:15;;;;;;;39.03;18.13;;;;;;;3.17;100.00;98231.03;4935836;29;20220;-83
2022/12/03 07:21:42;;;;;;;39.00;17.13;;;;;;;3.15;100.00;98218.03;4935759;29;20213;-83
2022/12/03 07:24:08;;;;;;;37.47;18.00;;;;;;;3.18;100.00;98222.28;4935985;29;20600;-83
2022/12/03 07:26:35;;;;;;;40.00;17.90;;;;;;;3.15;100.00;98220.63;4935594;29;20212;-83
2022/12/03 07:29:03;;;;;;;41.57;18.20;;;;;;;3.17;100.00;98229.25;4935973;29;20233;-82
2022/12/03 07:31:34;;;;;;;35.60;16.77;;;;;;;3.18;100.00;98238.78;4935672;29;20212;-83
2022/12/03 07:34:01;;;;;;;39.97;16.97;;;;;;;3.14;100.00;98232.00;4935426;29;20356;-81
2022/12/03 07:36:30;;;;;;;37.67;18.27;;;;;;;3.15;100.00;98227.63;4935342;29;20223;-81
2022/12/03 07:38:56;;;;;;;38.53;17.67;;;;;;;3.13;100.00;98230.28;4935691;29;20208;-81
2022/12/03 07:41:23;;;;;;;38.47;17.93;;;;;;;3.14;100.00;98236.34;4935698;29;20212;-80
2022/12/03 07:43:49;;;;;;;34.43;16.27;;;;;;;3.16;100.00;98230.16;4935318;29;20245;-81
2022/12/03 07:46:17;;;;;;;33.67;18.13;;;;;;;3.21;100.00;98224.75;4935179;29;20218;-81
2022/12/03 07:48:44;;;;;;;38.73;18.27;;;;;;;3.20;100.00;98218.72;4935174;29;20227;-81
2022/12/03 07:51:11;;;;;;;37.80;18.20;;;;;;;3.23;100.00;98220.31;4935690;29;20400;-81
2022/12/03 07:53:37;;;;;;;44.13;18.40;;;;;;;3.20;100.00;98221.31;4935352;29;20239;-81
2022/12/03 07:56:04;;;;;;;43.13;18.47;;;;;;;3.23;100.00;98220.31;4934962;29;20323;-81
2022/12/03 07:58:31;;;;;;;42.23;18.17;;;;;;;3.27;100.00;98228.00;4935313;29;20223;-81
2022/12/03 08:00:58;;;;;;;36.63;17.07;;;;;;;3.30;100.00;98227.88;4935229;29;20215;-81
2022/12/03 08:03:26;;;;;;;40.13;18.07;;;;;;;3.28;100.00;98224.47;4935249;29;20240;-79
2022/12/03 08:05:52;;;;;;;36.57;17.07;;;;;;;3.29;100.00;98220.94;4935241;29;20306;-80
2022/12/03 08:08:19;;;;;;;39.30;17.00;;;;;;;3.34;100.00;98219.00;4935261;29;20219;-82
2022/12/03 08:10:45;;;;;;;39.87;17.37;;;;;;;3.31;100.00;98223.50;4935057;29;20216;-85
2022/12/03 08:13:14;;;;;;;32.53;16.47;;;;;;;3.33;100.00;98232.13;4935424;29;20232;-87
2022/12/03 08:15:44;;;;;;;37.63;17.40;;;;;;;3.33;100.00;98232.13;4935229;29;20232;-87
2022/12/03 08:18:14;;;;;;;38.30;17.03;;;;;;;3.39;100.00;98227.53;4935187;29;20239;-87
2022/12/03 08:20:47;;;;;;;39.07;17.90;;;;;;;3.37;100.00;98225.88;4935498;29;20213;-87
2022/12/03 08:23:16;;;;;;;41.17;17.93;;;;;;;3.39;100.00;98237.97;4935057;29;20232;-85
2022/12/03 08:25:43;;;;;;;42.60;18.83;;;;;;;3.37;100.00;98238.94;4934791;29;20205;-86
2022/12/03 08:28:15;;;;;;;35.77;17.30;;;;;;;3.41;100.00;98230.06;4934907;29;20212;-85
2022/12/03 08:30:43;;;;;;;39.70;18.87;;;;;;;3.46;100.00;98222.88;4934940;29;20308;-81
2022/12/03 08:33:17;;;;;;;38.10;17.80;;;;;;;3.51;100.00;98228.78;4936287;29;20232;-79
2022/12/03 08:35:49;;;;;;;36.13;18.20;;;;;;;3.50;100.00;98225.34;4939402;29;20232;-78
2022/12/03 08:38:16;;;;;;;35.50;16.87;;;;;;;3.47;100.00;98227.19;4933686;29;20220;-77
2022/12/03 08:40:46;;;;;;;35.07;16.03;;;;;;;3.49;100.00;98231.47;4932889;29;20212;-77
2022/12/03 08:43:18;;;;;;;37.13;18.53;;;;;;;3.52;100.00;98233.97;4932937;29;20763;-77
2022/12/03 08:45:45;;;;;;;34.60;16.70;;;;;;;3.55;100.00;98233.81;4933824;29;20232;-79
2022/12/03 08:48:37;;;;;;;37.80;17.20;;;;;;;3.54;100.00;98228.69;4933169;29;20215;-79
2022/12/03 08:51:11;;;;;;;34.53;17.07;;;;;;;3.57;100.00;98228.53;4929486;29;20243;-78
2022/12/03 08:53:41;;;;;;;38.27;18.53;;;;;;;3.58;100.00;98220.66;4933097;29;20228;-79
2022/12/03 08:56:20;;;;;;;37.97;17.33;;;;;;;3.56;100.00;98219.00;4933031;29;20379;-79
2022/12/03 08:58:49;;;;;;;32.53;15.83;;;;;;;3.59;100.00;98219.75;4933043;29;20217;-79
2022/12/03 09:01:37;;;;;;;35.93;17.23;;;;;;;3.65;100.00;98218.63;4933158;29;20240;-79
2022/12/03 09:04:35;;;;;;;34.00;17.40;;;;;;;3.70;100.00;98214.06;4932884;29;20261;-78
2022/12/03 09:07:03;;;;;;;30.73;16.10;;;;;;;3.76;100.00;98217.31;4910651;29;20265;-79
2022/12/03 09:09:30;;;;;;;31.83;16.17;;;;;;;3.79;100.00;98217.16;4932874;29;20213;-80
2022/12/03 09:11:57;;;;;;;29.87;15.43;;;;;;;3.89;100.00;98218.50;4932743;29;20219;-79
2022/12/03 09:14:23;;;;;;;28.77;15.03;;;;;;;3.85;100.00;98222.13;4933358;29;20224;-78
2022/12/03 09:16:54;;;;;;;28.20;14.53;;;;;;;3.81;100.00;98220.59;4933089;29;20595;-82
2022/12/03 09:19:20;;;;;;;32.10;16.13;;;;;;;3.85;100.00;98221.31;4933865;29;20290;-81
2022/12/03 09:21:47;;;;;;;27.93;15.50;;;;;;;3.84;100.00;98217.00;4933900;29;20216;-84
2022/12/03 09:24:15;;;;;;;26.73;14.47;;;;;;;3.78;100.00;98220.69;4933709;29;20609;-78
2022/12/03 09:26:41;;;;;;;28.57;15.47;;;;;;;3.78;100.00;98223.31;4933565;29;20543;-79
2022/12/03 09:29:08;;;;;;;27.50;14.07;;;;;;;3.81;100.00;98220.59;4933602;29;20680;-80
2022/12/03 09:31:34;;;;;;;29.60;15.53;;;;;;;3.79;100.00;98219.78;4933935;29;20215;-81
2022/12/03 09:34:01;;;;;;;31.83;16.43;;;;;;;3.81;100.00;98224.94;4933559;29;20232;-80
2022/12/03 09:36:28;;;;;;;26.67;14.87;;;;;;;3.78;100.00;98219.84;4934043;29;20228;-81
2022/12/03 09:38:54;;;;;;;28.70;14.33;;;;;;;3.83;100.00;98220.50;4933856;29;20600;-81
2022/12/03 09:41:23;;;;;;;27.10;16.20;;;;;;;3.85;100.00;98209.06;4933265;29;20453;-77
2022/12/03 09:43:51;;;;;;;24.33;14.50;;;;;;;3.83;100.00;98210.03;4934047;29;20233;-81
2022/12/03 09:46:18;;;;;;;26.47;15.23;;;;;;;3.82;100.00;98203.97;4933889;29;20211;-82
2022/12/03 09:48:45;;;;;;;26.83;14.90;;;;;;;3.85;100.00;98190.75;4933943;29;20216;-81
2022/12/03 09:51:12;;;;;;;23.17;13.83;;;;;;;3.88;100.00;98185.44;4933653;29;20208;-81
2022/12/03 09:53:39;;;;;;;28.00;13.90;;;;;;;3.87;100.00;98175.88;4933770;29;20610;-81
2022/12/03 09:56:10;;;;;;;25.37;14.20;;;;;;;3.84;100.00;98167.31;4937111;29;20420;-82
2022/12/03 09:58:38;;;;;;;25.60;14.13;;;;;;;3.82;100.00;98167.38;4937799;29;20224;-81
2022/12/03 10:01:13;;;;;;;24.77;12.80;;;;;;;3.86;100.00;98174.16;4937394;29;20216;-81
2022/12/03 10:03:45;;;;;;;25.43;13.53;;;;;;;3.85;100.00;98174.25;4937419;29;20243;-82
2022/12/03 10:06:16;;;;;;;24.00;14.23;;;;;;;3.91;100.00;98174.81;4937073;29;20212;-81
2022/12/03 10:08:44;;;;;;;27.73;14.83;;;;;;;3.95;100.00;98176.41;4937510;29;20216;-81
2022/12/03 10:11:11;;;;;;;32.50;18.20;;;;;;;3.97;100.00;98182.41;4937261;29;20216;-82
2022/12/03 10:13:39;;;;;;;24.67;13.07;;;;;;;4.01;100.00;98181.38;4937105;29;20749;-82
2022/12/03 10:16:12;;;;;;;24.97;14.00;;;;;;;4.01;100.00;98176.16;4936606;29;20235;-81
2022/12/03 10:18:41;;;;;;;27.60;14.00;;;;;;;3.95;100.00;98184.25;4937197;29;20205;-81
2022/12/03 10:21:17;;;;;;;25.43;14.30;;;;;;;3.97;100.00;98187.63;4937086;29;20236;-81
2022/12/03 10:23:44;;;;;;;27.20;13.73;;;;;;;3.99;100.00;98177.97;4935850;29;20723;-82
2022/12/03 10:26:11;;;;;;;24.47;13.87;;;;;;;3.95;100.00;98171.19;4936030;29;20212;-82
2022/12/03 10:28:41;;;;;;;26.53;14.30;;;;;;;3.93;100.00;98169.53;4936908;29;20563;-81
2022/12/03 10:31:09;;;;;;;23.43;13.17;;;;;;;3.94;100.00;98169.47;4934672;29;20217;-82
2022/12/03 10:33:38;;;;;;;21.77;13.17;;;;;;;3.92;100.00;98166.06;4936834;29;20236;-81
2022/12/03 10:36:16;;;;;;;23.97;12.40;;;;;;;3.92;100.00;98166.06;4936579;29;20501;-81
2022/12/03 10:38:43;;;;;;;22.40;13.00;;;;;;;3.93;100.00;98166.91;4935576;29;20204;-81
2022/12/03 10:41:24;;;;;;;22.80;13.27;;;;;;;3.90;100.00;98173.13;4936668;29;20209;-81
2022/12/03 10:43:52;;;;;;;20.20;12.83;;;;;;;3.86;100.00;98163.69;4935186;29;20233;-82
2022/12/03 10:46:20;;;;;;;24.07;13.00;;;;;;;3.87;100.00;98165.44;4935905;29;20221;-81
2022/12/03 10:49:08;;;;;;;21.60;12.53;;;;;;;3.82;100.00;98156.91;4936621;29;20213;-81
2022/12/03 10:51:35;;;;;;;22.73;13.67;;;;;;;3.80;100.00;98150.88;4934616;29;20278;-82
2022/12/03 10:54:02;;;;;;;22.30;12.90;;;;;;;3.79;100.00;98154.41;4936217;29;20234;-81
2022/12/03 10:56:28;;;;;;;22.87;14.10;;;;;;;3.76;100.00;98149.34;4935349;29;20232;-81
2022/12/03 10:58:57;;;;;;;21.83;13.13;;;;;;;3.71;100.00;98148.69;4935233;29;20212;-81
2022/12/03 11:01:25;;;;;;;21.43;12.47;;;;;;;3.72;100.00;98139.09;4936371;29;20309;-82
2022/12/03 11:03:54;;;;;;;22.83;13.23;;;;;;;3.70;100.00;98133.91;4960498;23;20254;-82
2022/12/03 11:06:22;;;;;;;23.85;15.75;;;;;;;3.74;100.00;98135.47;4953107;28;20450;-82
2022/12/03 11:08:51;;;;;;;25.07;13.40;;;;;;;3.65;100.00;98129.78;4955298;28;20211;-83
2022/12/03 11:11:19;;;;;;;21.90;13.03;;;;;;;3.67;100.00;98128.81;4939583;29;20204;-83
2022/12/03 11:13:50;;;;;;;20.87;12.90;;;;;;;3.59;100.00;98117.81;4935834;29;20248;-81
2022/12/03 11:16:49;;;;;;;20.47;12.37;;;;;;;3.56;100.00;98122.34;4935703;29;20243;-80
2022/12/03 11:19:18;;;;;;;23.53;13.10;;;;;;;3.55;100.00;98123.25;4935734;29;20642;-78
2022/12/03 11:22:17;;;;;;;22.33;12.40;;;;;;;3.49;100.00;98123.50;4935878;29;20216;-83
2022/12/03 11:24:44;;;;;;;22.63;13.60;;;;;;;3.52;100.00;98132.06;4934977;29;20466;-79
2022/12/03 11:27:20;;;;;;;21.07;12.23;;;;;;;3.55;100.00;98126.69;4935160;29;20212;-81
2022/12/03 11:29:55;;;;;;;26.53;13.93;;;;;;;3.59;100.00;98124.81;4936223;29;20213;-83
2022/12/03 11:33:07;;;;;;;20.43;11.57;;;;;;;3.55;100.00;98118.03;4935589;29;20638;-83
2022/12/03 11:36:12;;;;;;;23.70;13.20;;;;;;;3.58;100.00;98118.75;4935291;29;20323;-82
2022/12/03 11:38:54;;;;;;;20.30;11.90;;;;;;;3.63;100.00;98115.94;4935488;29;20212;-82
2022/12/03 11:41:24;;;;;;;20.73;12.73;;;;;;;3.66;100.00;98114.03;4935599;29;20223;-82
2022/12/03 11:44:15;;;;;;;21.27;11.63;;;;;;;3.63;100.00;98115.94;4935111;29;20255;-81